createdAt,value
2018-02-05T00:02:20.050Z,12.23
2018-02-05T00:04:47.483Z,14.07
2018-02-05T00:07:14.959Z,13.50
2018-02-05T00:09:42.399Z,13.83
2018-02-05T00:12:09.868Z,14.63
2018-02-05T00:14:37.312Z,13.33
2018-02-05T00:17:05.084Z,13.80
2018-02-05T00:19:32.543Z,14.37
2018-02-05T00:21:59.972Z,14.33
2018-02-05T00:24:27.766Z,14.00
2018-02-05T00:26:55.220Z,15.30
2018-02-05T00:29:22.652Z,14.83
2018-02-05T00:31:50.136Z,14.57
2018-02-05T00:34:17.567Z,14.13
2018-02-05T00:36:44.996Z,15.20
2018-02-05T00:39:13.209Z,15.03
2018-02-05T00:41:40.629Z,16.73
2018-02-05T00:44:08.848Z,17.00
2018-02-05T00:46:37.228Z,16.67
2018-02-05T00:49:04.670Z,16.43
2018-02-05T00:51:32.096Z,17.40
2018-02-05T00:54:00.311Z,16.80
2018-02-05T00:56:27.770Z,17.83
2018-02-05T00:58:55.181Z,17.33
2018-02-05T01:01:23.412Z,17.00
2018-02-05T01:03:50.867Z,18.63
2018-02-05T01:06:18.296Z,17.77
2018-02-05T01:08:45.985Z,18.97
2018-02-05T01:11:13.416Z,15.93
2018-02-05T01:13:40.900Z,17.70
2018-02-05T01:16:08.344Z,17.17
2018-02-05T01:18:35.792Z,17.97
2018-02-05T01:21:03.272Z,16.97
2018-02-05T01:23:30.832Z,18.23
2018-02-05T01:25:58.260Z,17.53
2018-02-05T01:28:25.752Z,18.30
2018-02-05T01:30:53.504Z,18.20
2018-02-05T01:33:20.964Z,18.93
2018-02-05T01:35:48.421Z,18.50
2018-02-05T01:38:15.884Z,17.87
2018-02-05T01:40:43.336Z,18.80
2018-02-05T01:43:10.791Z,17.93
2018-02-05T01:45:38.556Z,17.90
2018-02-05T01:48:05.993Z,18.57
2018-02-05T01:50:33.424Z,17.77
2018-02-05T01:53:01.651Z,19.53
2018-02-05T01:55:29.075Z,19.90
2018-02-05T01:57:56.559Z,18.83
2018-02-05T02:00:24.325Z,18.97
2018-02-05T02:02:51.756Z,19.37
2018-02-05T02:05:19.188Z,18.43
2018-02-05T02:07:47.412Z,19.33
2018-02-05T02:10:14.892Z,18.90
2018-02-05T02:12:42.321Z,18.47
2018-02-05T02:15:09.884Z,19.17
2018-02-05T02:17:37.321Z,19.20
2018-02-05T02:20:04.744Z,19.77
2018-02-05T02:22:32.472Z,19.47
2018-02-05T02:24:59.920Z,18.00
2018-02-05T02:27:27.352Z,19.60
2018-02-05T02:29:54.843Z,19.53
2018-02-05T02:32:22.268Z,18.73
2018-02-05T02:34:49.748Z,19.80
2018-02-05T02:37:17.514Z,17.97
2018-02-05T02:39:44.960Z,20.93
2018-02-05T02:42:12.383Z,19.70
2018-02-05T02:44:40.595Z,19.43
2018-02-05T02:47:08.060Z,19.63
2018-02-05T02:49:35.514Z,19.87
2018-02-05T02:52:02.968Z,18.77
2018-02-05T02:54:30.436Z,20.17
2018-02-05T02:56:57.864Z,21.50
2018-02-05T02:59:25.560Z,21.30
2018-02-05T03:01:53.067Z,22.77
2018-02-05T03:04:20.447Z,21.00
2018-02-05T03:06:47.880Z,19.70
2018-02-05T03:09:16.076Z,22.03
2018-02-05T03:11:43.505Z,20.23
2018-02-05T03:14:11.836Z,22.03
2018-02-05T03:16:39.283Z,21.87
2018-02-05T03:19:06.720Z,21.13
2018-02-05T03:21:34.520Z,20.70
2018-02-05T03:24:01.968Z,21.10
2018-02-05T03:26:29.399Z,20.33
2018-02-05T03:28:56.835Z,22.37
2018-02-05T03:31:25.064Z,21.83
2018-02-05T03:33:52.487Z,21.47
2018-02-05T03:36:20.288Z,22.67
2018-02-05T03:38:47.711Z,21.00
2018-02-05T03:41:15.200Z,21.30
2018-02-05T03:43:43.675Z,22.73
2018-02-05T03:46:11.104Z,23.53
2018-02-05T03:48:38.539Z,21.70
2018-02-05T03:51:07.076Z,21.20
2018-02-05T03:53:34.605Z,21.50
2018-02-05T03:56:02.036Z,21.90
2018-02-05T03:58:30.572Z,23.20
2018-02-05T04:00:58.032Z,22.73
2018-02-05T04:03:25.462Z,22.90
2018-02-05T04:05:52.901Z,21.57
2018-02-05T04:08:21.119Z,22.63
2018-02-05T04:10:48.548Z,21.90
2018-02-05T04:13:16.131Z,22.00
2018-02-05T04:15:43.588Z,23.23
2018-02-05T04:18:11.016Z,23.03
2018-02-05T04:20:38.743Z,22.60
2018-02-05T04:23:06.180Z,22.07
2018-02-05T04:25:33.620Z,21.13
2018-02-05T04:28:01.070Z,21.30
2018-02-05T04:30:28.536Z,22.37
2018-02-05T04:32:55.985Z,22.03
2018-02-05T04:35:23.656Z,22.07
2018-02-05T04:37:51.127Z,21.60
2018-02-05T04:40:18.584Z,21.97
2018-02-05T04:42:46.028Z,21.90
2018-02-05T04:45:13.479Z,21.57
2018-02-05T04:47:40.936Z,21.20
2018-02-05T04:50:08.701Z,22.73
2018-02-05T04:52:36.124Z,21.93
2018-02-05T04:55:04.316Z,21.63
2018-02-05T04:57:31.752Z,22.40
2018-02-05T04:59:59.943Z,22.23
2018-02-05T05:02:27.422Z,22.53
2018-02-05T05:04:55.124Z,22.03
2018-02-05T05:07:22.559Z,23.90
2018-02-05T05:09:50.000Z,21.40
2018-02-05T05:12:17.449Z,22.87
2018-02-05T05:14:44.875Z,23.03
2018-02-05T05:17:13.068Z,22.07
2018-02-05T05:19:40.540Z,23.70
2018-02-05T05:22:07.997Z,22.77
2018-02-05T05:24:35.424Z,23.23
2018-02-05T05:27:03.124Z,22.70
2018-02-05T05:29:30.584Z,22.73
2018-02-05T05:31:58.012Z,22.83
2018-02-05T05:34:25.496Z,22.50
2018-02-05T05:36:52.953Z,21.53
2018-02-05T05:39:20.404Z,22.80
2018-02-05T05:41:48.184Z,21.77
2018-02-05T05:44:15.605Z,21.37
2018-02-05T05:46:43.035Z,21.67
2018-02-05T05:49:11.236Z,20.87
2018-02-05T05:51:38.664Z,23.73
2018-02-05T05:54:06.894Z,21.67
2018-02-05T05:56:34.631Z,22.13
2018-02-05T05:59:02.060Z,22.73
2018-02-05T06:01:30.259Z,23.00
2018-02-05T06:03:57.692Z,24.07
2018-02-05T06:06:25.919Z,22.87
2018-02-05T06:08:53.380Z,23.30
2018-02-05T06:11:21.153Z,22.50
2018-02-05T06:13:48.592Z,24.23
2018-02-05T06:16:16.067Z,23.67
2018-02-05T06:18:43.511Z,25.00
2018-02-05T06:21:10.968Z,23.97
2018-02-05T06:23:38.396Z,25.80
2018-02-05T06:26:06.096Z,22.60
2018-02-05T06:28:33.527Z,23.47
2018-02-05T06:31:00.956Z,22.70
2018-02-05T06:33:29.480Z,22.33
2018-02-05T06:35:56.944Z,24.07
2018-02-05T06:38:24.376Z,21.97
2018-02-05T06:40:51.864Z,22.93
2018-02-05T06:43:19.305Z,23.30
2018-02-05T06:45:46.729Z,22.93
2018-02-05T06:48:15.012Z,21.73
2018-02-05T06:50:54.388Z,23.50
2018-02-05T06:53:33.792Z,23.10
2018-02-05T06:56:10.295Z,23.13
2018-02-05T06:58:37.736Z,22.23
2018-02-05T07:01:05.172Z,24.57
2018-02-05T07:03:32.660Z,23.90
2018-02-05T07:06:00.109Z,22.47
2018-02-05T07:08:27.582Z,22.43
2018-02-05T07:10:55.040Z,24.17
2018-02-05T07:13:22.800Z,23.20
2018-02-05T07:15:50.243Z,23.77
2018-02-05T07:18:17.664Z,23.57
2018-02-05T07:20:46.096Z,23.20
2018-02-05T07:23:13.550Z,23.40
2018-02-05T07:25:40.980Z,23.30
2018-02-05T07:28:08.424Z,23.00
2018-02-05T07:30:35.912Z,23.97
2018-02-05T07:33:03.350Z,22.93
2018-02-05T07:35:30.796Z,21.03
2018-02-05T07:37:58.995Z,23.47
2018-02-05T07:40:26.420Z,23.00
2018-02-05T07:42:54.720Z,25.40
2018-02-05T07:45:22.144Z,22.53
2018-02-05T07:47:50.364Z,23.60
2018-02-05T07:50:18.137Z,22.50
2018-02-05T07:52:45.582Z,23.50
2018-02-05T07:55:12.994Z,24.77
2018-02-05T07:57:41.199Z,23.43
2018-02-05T08:00:08.625Z,25.57
2018-02-05T08:02:36.855Z,23.97
2018-02-05T08:05:04.623Z,25.97
2018-02-05T08:07:32.077Z,24.20
2018-02-05T08:09:59.522Z,26.17
2018-02-05T08:12:26.993Z,25.47
2018-02-05T08:14:54.441Z,23.27
2018-02-05T08:17:21.878Z,23.47
2018-02-05T08:19:49.320Z,22.37
2018-02-05T08:22:17.516Z,24.43
2018-02-05T08:24:44.994Z,22.77
2018-02-05T08:27:12.764Z,23.47
2018-02-05T08:29:40.216Z,22.43
2018-02-05T08:32:07.766Z,23.13
2018-02-05T08:34:35.233Z,23.03
2018-02-05T08:37:02.666Z,23.80
2018-02-05T08:39:30.090Z,22.83
2018-02-05T08:41:58.310Z,22.83
2018-02-05T08:44:25.743Z,23.40
2018-02-05T08:46:54.044Z,21.40
2018-02-05T08:49:21.495Z,21.50
2018-02-05T08:51:49.778Z,20.60
2018-02-05T08:54:17.242Z,20.33
2018-02-05T08:56:45.007Z,21.60
2018-02-05T08:59:12.464Z,22.33
2018-02-05T09:01:39.914Z,22.67
2018-02-05T09:04:07.702Z,20.30
2018-02-05T09:06:35.124Z,20.07
2018-02-05T09:09:02.592Z,20.23
2018-02-05T09:11:30.036Z,20.13
2018-02-05T09:13:57.524Z,19.73
2018-02-05T09:16:24.968Z,18.93
2018-02-05T09:18:52.735Z,19.40
2018-02-05T09:21:20.168Z,18.50
2018-02-05T09:23:47.653Z,18.63
2018-02-05T09:26:15.420Z,18.43
2018-02-05T09:28:42.998Z,19.13
2018-02-05T09:31:10.380Z,18.50
2018-02-05T09:33:38.608Z,18.90
2018-02-05T09:36:06.044Z,18.90
2018-02-05T09:38:33.472Z,17.80
2018-02-05T09:41:01.804Z,17.53
2018-02-05T09:43:29.356Z,19.17
2018-02-05T09:45:56.760Z,17.30
2018-02-05T09:48:24.988Z,18.53
2018-02-05T09:50:52.489Z,18.17
2018-02-05T09:53:19.897Z,17.80
2018-02-05T09:55:47.357Z,19.07
2018-02-05T09:58:14.816Z,18.60
2018-02-05T10:00:42.235Z,18.03
2018-02-05T10:03:10.752Z,18.93
2018-02-05T10:05:38.184Z,17.47
2018-02-05T10:08:05.616Z,19.47
2018-02-05T10:10:34.210Z,18.53
2018-02-05T10:13:02.405Z,17.63
2018-02-05T10:15:29.839Z,18.00
2018-02-05T10:17:58.097Z,18.37
2018-02-05T10:20:25.520Z,18.80
2018-02-05T10:22:53.068Z,18.50
2018-02-05T10:25:20.536Z,19.00
2018-02-05T10:27:48.088Z,19.73
2018-02-05T10:30:15.546Z,16.73
2018-02-05T10:32:43.322Z,17.20
2018-02-05T10:35:10.796Z,17.87
2018-02-05T10:37:38.225Z,17.33
2018-02-05T10:40:05.998Z,17.27
2018-02-05T10:42:33.428Z,18.20
2018-02-05T10:45:00.856Z,19.13
2018-02-05T10:47:29.074Z,18.03
2018-02-05T10:49:56.540Z,17.43
2018-02-05T10:52:24.000Z,17.43
2018-02-05T10:54:51.564Z,17.60
2018-02-05T10:57:19.008Z,18.00
2018-02-05T10:59:46.457Z,17.53
2018-02-05T11:02:14.239Z,15.80
2018-02-05T11:04:41.664Z,16.77
2018-02-05T11:07:09.106Z,16.03
2018-02-05T11:09:37.319Z,18.00
2018-02-05T11:12:04.748Z,17.13
2018-02-05T11:14:32.257Z,18.07
2018-02-05T11:17:00.008Z,17.63
2018-02-05T11:19:27.447Z,18.30
2018-02-05T11:21:54.892Z,18.40
2018-02-05T11:24:22.348Z,18.63
2018-02-05T11:26:49.780Z,18.40
2018-02-05T11:29:17.996Z,17.80
2018-02-05T11:31:45.665Z,17.83
2018-02-05T11:34:13.092Z,15.87
2018-02-05T11:36:40.521Z,17.50
2018-02-05T11:39:08.252Z,17.73
2018-02-05T11:41:35.672Z,18.30
2018-02-05T11:44:03.253Z,17.17
2018-02-05T11:46:30.948Z,17.83
2018-02-05T11:48:58.405Z,18.37
2018-02-05T11:51:25.809Z,17.23
2018-02-05T11:53:53.294Z,18.57
2018-02-05T11:56:20.728Z,17.13
2018-02-05T11:58:48.208Z,17.53
2018-02-05T12:01:15.652Z,15.80
2018-02-05T12:03:43.848Z,17.10
2018-02-05T12:06:11.433Z,17.27
2018-02-05T12:08:38.892Z,17.53
2018-02-05T12:11:06.326Z,18.77
2018-02-05T12:13:33.808Z,16.30
2018-02-05T12:16:01.572Z,16.60
2018-02-05T12:18:29.000Z,16.67
2018-02-05T12:20:56.448Z,16.90
2018-02-05T12:23:24.668Z,17.87
2018-02-05T12:25:52.096Z,17.03
2018-02-05T12:28:19.591Z,17.37
2018-02-05T12:30:47.344Z,17.37
2018-02-05T12:33:14.790Z,17.40
2018-02-05T12:35:42.216Z,17.87
2018-02-05T12:38:10.422Z,17.67
2018-02-05T12:40:37.848Z,17.70
2018-02-05T12:43:06.076Z,17.67
2018-02-05T12:45:33.832Z,17.50
2018-02-05T12:48:01.260Z,16.63
2018-02-05T12:50:28.690Z,16.70
2018-02-05T12:52:57.132Z,17.27
2018-02-05T12:55:24.575Z,15.80
2018-02-05T12:57:52.008Z,15.33
2018-02-05T13:00:25.193Z,15.93
2018-02-05T13:02:58.364Z,15.20
2018-02-05T13:05:26.582Z,16.00
2018-02-05T13:07:54.048Z,15.00
2018-02-05T13:10:21.484Z,16.00
2018-02-05T13:12:48.956Z,16.00
2018-02-05T13:15:16.378Z,15.77
2018-02-05T13:17:44.572Z,14.37
2018-02-05T13:20:12.368Z,14.53
2018-02-05T13:22:39.816Z,15.43
2018-02-05T13:25:07.248Z,14.80
2018-02-05T13:27:35.036Z,15.13
2018-02-05T13:30:02.492Z,14.40
2018-02-05T13:32:29.917Z,14.57
2018-02-05T13:34:58.432Z,14.47
2018-02-05T13:37:26.708Z,13.90
2018-02-05T13:39:54.496Z,14.67
2018-02-05T13:42:22.028Z,16.13
2018-02-05T13:44:49.488Z,16.10
2018-02-05T13:47:16.924Z,17.23
2018-02-05T13:49:44.424Z,16.50
2018-02-05T13:52:11.964Z,15.47
2018-02-05T13:54:39.392Z,16.17
2018-02-05T13:57:06.958Z,17.57
2018-02-05T13:59:34.438Z,15.60
2018-02-05T14:02:01.896Z,15.40
2018-02-05T14:04:29.753Z,15.70
2018-02-05T14:06:57.164Z,15.57
2018-02-05T14:09:24.593Z,16.60
2018-02-05T14:11:52.336Z,16.13
2018-02-05T14:14:19.768Z,16.97
2018-02-05T14:16:47.196Z,16.40
2018-02-05T14:19:15.400Z,15.03
2018-02-05T14:21:42.996Z,16.60
2018-02-05T14:24:10.536Z,16.07
2018-02-05T14:26:37.980Z,15.00
2018-02-05T14:29:05.472Z,16.90
2018-02-05T14:31:32.888Z,16.20
2018-02-05T14:34:00.385Z,15.57
2018-02-05T14:36:27.828Z,13.47
2018-02-05T14:38:55.302Z,14.73
2018-02-05T14:41:22.716Z,13.07
2018-02-05T14:43:50.148Z,13.43
2018-02-05T14:46:18.355Z,12.80
2018-02-05T14:48:46.064Z,13.27
2018-02-05T14:51:13.596Z,14.10
2018-02-05T14:53:41.079Z,15.10
2018-02-05T14:56:08.829Z,13.43
2018-02-05T14:58:36.313Z,14.47
2018-02-05T15:01:04.545Z,15.13
2018-02-05T15:03:31.988Z,13.17
2018-02-05T15:05:59.420Z,15.97
2018-02-05T15:08:26.905Z,16.70
2018-02-05T15:10:54.340Z,16.23
2018-02-05T15:13:21.894Z,17.47
2018-02-05T15:15:49.467Z,17.57
2018-02-05T15:18:17.236Z,17.97
2018-02-05T15:20:44.716Z,20.03
2018-02-05T15:23:12.237Z,18.50
2018-02-05T15:25:39.907Z,16.97
2018-02-05T15:28:07.341Z,19.47
2018-02-05T15:30:34.824Z,17.87
2018-02-05T15:33:02.584Z,17.87
2018-02-05T15:35:30.140Z,17.80
2018-02-05T15:37:57.601Z,18.70
2018-02-05T15:40:25.461Z,18.70
2018-02-05T15:42:52.947Z,18.30
2018-02-05T15:45:20.682Z,18.67
2018-02-05T15:47:48.400Z,19.83
2018-02-05T15:50:16.640Z,18.50
2018-02-05T15:52:44.081Z,17.00
2018-02-05T15:55:11.850Z,18.33
2018-02-05T15:57:39.292Z,17.43
2018-02-05T16:00:06.712Z,18.30
2018-02-05T16:02:34.932Z,16.73
2018-02-05T16:05:02.499Z,17.00
2018-02-05T16:07:29.908Z,19.00
2018-02-05T16:09:58.119Z,16.83
2018-02-05T16:12:25.583Z,17.10
2018-02-05T16:14:53.242Z,17.20
2018-02-05T16:17:21.013Z,17.33
2018-02-05T16:19:48.468Z,18.07
2018-02-05T16:22:15.904Z,18.07
2018-02-05T16:24:43.393Z,17.53
2018-02-05T16:27:10.820Z,18.50
2018-02-05T16:29:38.244Z,17.73
2018-02-05T16:32:06.448Z,18.53
2018-02-05T16:34:33.893Z,18.80
2018-02-05T16:37:02.128Z,18.47
2018-02-05T16:39:29.800Z,18.93
2018-02-05T16:41:57.320Z,17.63
2018-02-05T16:44:24.760Z,19.73
2018-02-05T16:46:52.424Z,19.43
2018-02-05T16:49:19.852Z,20.73
2018-02-05T16:51:48.076Z,19.27
2018-02-05T16:54:15.729Z,19.87
2018-02-05T16:56:43.128Z,19.97
2018-02-05T16:59:10.572Z,22.53
2018-02-05T17:01:38.104Z,20.37
2018-02-05T17:04:05.544Z,20.00
2018-02-05T17:06:32.976Z,22.17
2018-02-05T17:09:01.504Z,21.17
2018-02-05T17:11:28.932Z,20.37
2018-02-05T17:13:56.417Z,20.50
2018-02-05T17:16:24.227Z,20.43
2018-02-05T17:18:51.653Z,23.67
2018-02-05T17:21:19.195Z,20.87
2018-02-05T17:23:46.656Z,21.20
2018-02-05T17:26:14.156Z,19.17
2018-02-05T17:28:41.580Z,20.07
2018-02-05T17:31:09.134Z,20.30
2018-02-05T17:33:36.579Z,20.73
2018-02-05T17:36:04.044Z,19.50
2018-02-05T17:38:31.597Z,19.83
2018-02-05T17:40:59.000Z,21.57
2018-02-05T17:43:26.435Z,20.70
2018-02-05T17:45:54.272Z,21.27
2018-02-05T17:48:21.740Z,20.10
2018-02-05T17:50:49.170Z,20.83
2018-02-05T17:53:16.646Z,21.47
2018-02-05T17:55:44.052Z,21.40
2018-02-05T17:58:11.665Z,21.47
2018-02-05T18:00:39.340Z,21.83
2018-02-05T18:03:06.768Z,21.03
2018-02-05T18:05:34.208Z,21.77
2018-02-05T18:08:02.825Z,21.80
2018-02-05T18:10:30.232Z,27.50
2018-02-05T18:12:57.671Z,21.47
2018-02-05T18:15:25.409Z,23.83
2018-02-05T18:17:52.851Z,23.80
2018-02-05T18:20:20.275Z,22.43
2018-02-05T18:22:48.901Z,19.77
2018-02-05T18:25:16.363Z,22.20
2018-02-05T18:27:43.815Z,21.73
2018-02-05T18:30:11.585Z,22.70
2018-02-05T18:32:39.045Z,22.47
2018-02-05T18:35:06.500Z,23.17
2018-02-05T18:37:34.270Z,21.57
2018-02-05T18:40:01.684Z,22.47
2018-02-05T18:42:29.991Z,23.97
2018-02-05T18:44:57.404Z,22.37
2018-02-05T18:47:25.608Z,22.03
2018-02-05T18:49:53.100Z,21.27
2018-02-05T18:52:20.661Z,23.50
2018-02-05T18:54:48.095Z,21.30
2018-02-05T18:57:15.584Z,23.20
2018-02-05T18:59:43.184Z,22.67
2018-02-05T19:02:21.164Z,21.33
2018-02-05T19:04:48.828Z,23.70
2018-02-05T19:07:16.368Z,22.87
2018-02-05T19:09:43.910Z,23.53
2018-02-05T19:12:11.724Z,22.50
2018-02-05T19:14:39.924Z,23.93
2018-02-05T19:17:07.405Z,24.70
2018-02-05T19:19:35.271Z,23.13
2018-02-05T19:22:02.676Z,22.57
2018-02-05T19:24:30.871Z,23.63
2018-02-05T19:26:58.674Z,24.20
2018-02-05T19:29:26.217Z,23.83
2018-02-05T19:31:53.624Z,21.93
2018-02-05T19:34:21.141Z,21.97
2018-02-05T19:36:48.582Z,24.50
2018-02-05T19:39:16.000Z,24.73
2018-02-05T19:41:44.537Z,22.57
2018-02-05T19:44:11.988Z,25.33
2018-02-05T19:46:39.420Z,24.57
2018-02-05T19:49:06.857Z,23.47
2018-02-05T19:51:35.083Z,24.07
2018-02-05T19:54:02.512Z,23.80
2018-02-05T19:56:30.208Z,23.20
2018-02-05T19:58:57.635Z,22.97
2018-02-05T20:01:25.296Z,21.87
2018-02-05T20:03:52.996Z,23.47
2018-02-05T20:06:20.428Z,24.50
2018-02-05T20:08:47.870Z,22.77
2018-02-05T20:11:15.364Z,20.83
2018-02-05T20:13:42.810Z,23.57
2018-02-05T20:16:10.233Z,23.57
2018-02-05T20:18:38.582Z,22.60
2018-02-05T20:21:06.800Z,22.67
2018-02-05T20:23:34.234Z,21.50
2018-02-05T20:26:02.560Z,22.47
2018-02-05T20:28:29.997Z,24.73
2018-02-05T20:30:57.428Z,22.87
2018-02-05T20:33:26.044Z,21.33
2018-02-05T20:35:53.457Z,22.23
2018-02-05T20:38:21.657Z,25.37
2018-02-05T20:40:49.488Z,24.27
2018-02-05T20:43:16.925Z,24.13
2018-02-05T20:45:44.356Z,22.30
2018-02-05T20:48:12.128Z,23.50
2018-02-05T20:50:39.587Z,24.57
2018-02-05T20:53:07.031Z,22.90
2018-02-05T20:55:34.712Z,23.67
2018-02-05T20:58:02.169Z,23.67
2018-02-05T21:00:29.711Z,24.27
2018-02-05T21:02:57.477Z,24.40
2018-02-05T21:05:24.948Z,24.03
2018-02-05T21:07:52.391Z,21.27
2018-02-05T21:10:19.832Z,23.70
2018-02-05T21:12:47.269Z,24.33
2018-02-05T21:15:15.480Z,23.43
2018-02-05T21:17:43.463Z,25.10
2018-02-05T21:20:10.911Z,24.43
2018-02-05T21:22:38.343Z,24.67
2018-02-05T21:25:06.132Z,24.87
2018-02-05T21:27:33.588Z,24.23
2018-02-05T21:30:01.056Z,24.00
2018-02-05T21:32:28.500Z,24.87
2018-02-05T21:34:55.949Z,25.90
2018-02-05T21:37:23.384Z,23.07
2018-02-05T21:39:51.660Z,23.13
2018-02-05T21:42:19.099Z,23.67
2018-02-05T21:44:47.322Z,24.73
2018-02-05T21:47:15.116Z,21.57
2018-02-05T21:49:42.560Z,23.53
2018-02-05T21:52:09.996Z,24.13
2018-02-05T21:54:37.496Z,24.53
2018-02-05T21:57:04.925Z,22.43
2018-02-05T21:59:32.371Z,23.30
2018-02-05T22:02:00.140Z,23.73
2018-02-05T22:04:27.574Z,24.60
2018-02-05T22:06:55.008Z,23.70
2018-02-05T22:09:23.260Z,22.30
2018-02-05T22:11:50.700Z,24.53
2018-02-05T22:14:18.144Z,23.20
2018-02-05T22:16:45.595Z,24.43
2018-02-05T22:19:13.056Z,23.63
2018-02-05T22:21:40.492Z,23.20
2018-02-05T22:24:07.932Z,24.50
2018-02-05T22:26:36.136Z,24.73
2018-02-05T22:29:03.566Z,24.93
2018-02-05T22:31:31.779Z,24.40
2018-02-05T22:33:59.226Z,24.63
2018-02-05T22:36:26.652Z,24.30
2018-02-05T22:38:54.863Z,24.70
2018-02-05T22:41:22.304Z,25.93
2018-02-05T22:43:50.628Z,25.37
2018-02-05T22:46:18.194Z,25.70
2018-02-05T22:48:45.763Z,25.10
2018-02-05T22:51:13.172Z,22.87
2018-02-05T22:53:40.993Z,23.13
2018-02-05T22:56:08.396Z,24.27
2018-02-05T22:58:35.846Z,26.20
2018-02-05T23:01:03.621Z,24.03
2018-02-05T23:03:31.052Z,23.53
2018-02-05T23:05:58.479Z,22.63
2018-02-05T23:08:26.708Z,23.47
2018-02-05T23:10:54.169Z,24.37
2018-02-05T23:13:21.612Z,22.20
2018-02-05T23:15:49.480Z,23.30
2018-02-05T23:18:16.912Z,24.57
2018-02-05T23:20:44.400Z,23.83
2018-02-05T23:23:11.850Z,23.07
2018-02-05T23:25:39.320Z,24.13
2018-02-05T23:28:06.752Z,25.07
2018-02-05T23:30:34.238Z,25.53
2018-02-05T23:33:01.660Z,24.63
2018-02-05T23:35:29.254Z,23.93
2018-02-05T23:37:57.035Z,26.00
2018-02-05T23:40:24.576Z,26.00
2018-02-05T23:42:52.004Z,25.87
2018-02-05T23:45:19.496Z,26.70
2018-02-05T23:47:46.975Z,25.50
2018-02-05T23:50:14.495Z,27.07
2018-02-05T23:52:41.916Z,25.17
2018-02-05T23:55:10.138Z,25.47
2018-02-05T23:57:37.599Z,24.83
